sensor_id;sensor_type;location;lat;lon;timestamp;P1;durP1;ratioP1;P2;durP2;ratioP2
45077;SDS011;60508;42.622;25.416;2024-03-07T00:00:28;30.23;;;13.38;;
45077;SDS011;60508;42.622;25.416;2024-03-07T00:02:54;24.02;;;11.20;;
45077;SDS011;60508;42.622;25.416;2024-03-07T00:05:21;24.35;;;12.13;;
45077;SDS011;60508;42.622;25.416;2024-03-07T00:08:11;23.90;;;12.45;;
45077;SDS011;60508;42.622;25.416;2024-03-07T00:10:37;19.95;;;13.43;;
45077;SDS011;60508;42.622;25.416;2024-03-07T00:13:23;22.42;;;11.73;;
45077;SDS011;60508;42.622;25.416;2024-03-07T00:15:50;25.30;;;10.25;;
45077;SDS011;60508;42.622;25.416;2024-03-07T00:18:16;24.90;;;12.85;;
45077;SDS011;60508;42.622;25.416;2024-03-07T00:20:42;18.65;;;10.55;;
45077;SDS011;60508;42.622;25.416;2024-03-07T00:23:09;34.70;;;12.50;;
45077;SDS011;60508;42.622;25.416;2024-03-07T00:25:55;28.17;;;11.95;;
45077;SDS011;60508;42.622;25.416;2024-03-07T00:28:22;19.30;;;11.98;;
45077;SDS011;60508;42.622;25.416;2024-03-07T00:31:08;19.45;;;10.35;;
45077;SDS011;60508;42.622;25.416;2024-03-07T00:33:35;19.05;;;10.57;;
45077;SDS011;60508;42.622;25.416;2024-03-07T00:36:02;24.08;;;9.70;;
45077;SDS011;60508;42.622;25.416;2024-03-07T00:38:29;17.77;;;10.57;;
45077;SDS011;60508;42.622;25.416;2024-03-07T00:40:56;21.58;;;11.88;;
45077;SDS011;60508;42.622;25.416;2024-03-07T00:43:22;20.52;;;11.45;;
45077;SDS011;60508;42.622;25.416;2024-03-07T00:45:49;21.58;;;11.05;;
45077;SDS011;60508;42.622;25.416;2024-03-07T00:48:16;19.85;;;10.30;;
45077;SDS011;60508;42.622;25.416;2024-03-07T00:50:42;19.17;;;10.82;;
45077;SDS011;60508;42.622;25.416;2024-03-07T00:53:29;17.05;;;10.60;;
45077;SDS011;60508;42.622;25.416;2024-03-07T00:55:56;18.77;;;10.90;;
45077;SDS011;60508;42.622;25.416;2024-03-07T00:58:23;17.63;;;10.65;;
45077;SDS011;60508;42.622;25.416;2024-03-07T01:00:49;17.60;;;10.90;;
45077;SDS011;60508;42.622;25.416;2024-03-07T01:03:16;23.63;;;12.82;;
45077;SDS011;60508;42.622;25.416;2024-03-07T01:05:43;21.45;;;11.38;;
45077;SDS011;60508;42.622;25.416;2024-03-07T01:08:10;29.55;;;11.45;;
45077;SDS011;60508;42.622;25.416;2024-03-07T01:10:36;16.02;;;10.95;;
45077;SDS011;60508;42.622;25.416;2024-03-07T01:13:23;23.88;;;11.38;;
45077;SDS011;60508;42.622;25.416;2024-03-07T01:15:50;27.05;;;11.77;;
45077;SDS011;60508;42.622;25.416;2024-03-07T01:18:16;27.08;;;11.68;;
45077;SDS011;60508;42.622;25.416;2024-03-07T01:20:43;19.20;;;10.52;;
45077;SDS011;60508;42.622;25.416;2024-03-07T01:23:30;37.58;;;16.70;;
45077;SDS011;60508;42.622;25.416;2024-03-07T01:25:57;21.15;;;12.32;;
45077;SDS011;60508;42.622;25.416;2024-03-07T01:28:25;29.23;;;14.02;;
45077;SDS011;60508;42.622;25.416;2024-03-07T01:30:52;25.85;;;14.27;;
45077;SDS011;60508;42.622;25.416;2024-03-07T01:33:19;32.60;;;15.02;;
45077;SDS011;60508;42.622;25.416;2024-03-07T01:36:05;25.65;;;14.43;;
45077;SDS011;60508;42.622;25.416;2024-03-07T01:38:32;25.83;;;14.70;;
45077;SDS011;60508;42.622;25.416;2024-03-07T01:41:18;28.48;;;14.20;;
45077;SDS011;60508;42.622;25.416;2024-03-07T01:43:45;32.05;;;14.05;;
45077;SDS011;60508;42.622;25.416;2024-03-07T01:46:11;21.05;;;12.98;;
45077;SDS011;60508;42.622;25.416;2024-03-07T01:48:58;17.73;;;10.57;;
45077;SDS011;60508;42.622;25.416;2024-03-07T01:51:25;25.08;;;13.00;;
45077;SDS011;60508;42.622;25.416;2024-03-07T01:53:53;17.90;;;10.80;;
45077;SDS011;60508;42.622;25.416;2024-03-07T01:56:20;22.35;;;12.30;;
45077;SDS011;60508;42.622;25.416;2024-03-07T01:58:47;21.75;;;12.20;;
45077;SDS011;60508;42.622;25.416;2024-03-07T02:01:15;27.35;;;12.02;;
45077;SDS011;60508;42.622;25.416;2024-03-07T02:03:42;28.35;;;10.60;;
45077;SDS011;60508;42.622;25.416;2024-03-07T02:06:09;19.80;;;10.65;;
45077;SDS011;60508;42.622;25.416;2024-03-07T02:08:36;24.63;;;10.95;;
45077;SDS011;60508;42.622;25.416;2024-03-07T02:11:02;23.58;;;11.38;;
45077;SDS011;60508;42.622;25.416;2024-03-07T02:13:49;30.15;;;10.60;;
45077;SDS011;60508;42.622;25.416;2024-03-07T02:16:15;40.75;;;11.88;;
45077;SDS011;60508;42.622;25.416;2024-03-07T02:19:02;19.35;;;11.25;;
45077;SDS011;60508;42.622;25.416;2024-03-07T02:21:29;18.63;;;11.98;;
45077;SDS011;60508;42.622;25.416;2024-03-07T02:23:55;27.17;;;11.38;;
45077;SDS011;60508;42.622;25.416;2024-03-07T02:26:22;23.20;;;10.13;;
45077;SDS011;60508;42.622;25.416;2024-03-07T02:29:08;18.80;;;11.13;;
45077;SDS011;60508;42.622;25.416;2024-03-07T02:31:35;21.83;;;11.00;;
45077;SDS011;60508;42.622;25.416;2024-03-07T02:34:23;25.08;;;11.30;;
45077;SDS011;60508;42.622;25.416;2024-03-07T02:36:51;22.00;;;10.32;;
45077;SDS011;60508;42.622;25.416;2024-03-07T02:39:17;21.08;;;11.45;;
45077;SDS011;60508;42.622;25.416;2024-03-07T02:42:04;26.67;;;9.90;;
45077;SDS011;60508;42.622;25.416;2024-03-07T02:44:30;20.70;;;10.63;;
45077;SDS011;60508;42.622;25.416;2024-03-07T02:47:17;15.95;;;9.93;;
45077;SDS011;60508;42.622;25.416;2024-03-07T02:49:44;18.55;;;9.25;;
45077;SDS011;60508;42.622;25.416;2024-03-07T02:52:10;22.77;;;11.68;;
45077;SDS011;60508;42.622;25.416;2024-03-07T02:54:37;24.42;;;11.20;;
45077;SDS011;60508;42.622;25.416;2024-03-07T02:57:03;20.33;;;11.85;;
45077;SDS011;60508;42.622;25.416;2024-03-07T02:59:49;14.68;;;10.00;;
45077;SDS011;60508;42.622;25.416;2024-03-07T03:02:16;16.45;;;10.82;;
45077;SDS011;60508;42.622;25.416;2024-03-07T03:04:42;19.73;;;11.27;;
45077;SDS011;60508;42.622;25.416;2024-03-07T03:07:09;23.42;;;11.18;;
45077;SDS011;60508;42.622;25.416;2024-03-07T03:09:36;26.27;;;12.38;;
45077;SDS011;60508;42.622;25.416;2024-03-07T03:12:05;22.77;;;11.57;;
45077;SDS011;60508;42.622;25.416;2024-03-07T03:14:32;19.10;;;10.93;;
45077;SDS011;60508;42.622;25.416;2024-03-07T03:17:19;18.30;;;11.00;;
45077;SDS011;60508;42.622;25.416;2024-03-07T03:19:45;32.47;;;12.63;;
45077;SDS011;60508;42.622;25.416;2024-03-07T03:22:12;26.77;;;12.38;;
45077;SDS011;60508;42.622;25.416;2024-03-07T03:24:38;23.23;;;12.57;;
45077;SDS011;60508;42.622;25.416;2024-03-07T03:27:27;23.03;;;12.80;;
45077;SDS011;60508;42.622;25.416;2024-03-07T03:29:53;18.20;;;11.00;;
45077;SDS011;60508;42.622;25.416;2024-03-07T03:32:19;22.13;;;10.80;;
45077;SDS011;60508;42.622;25.416;2024-03-07T03:34:46;22.95;;;11.68;;
45077;SDS011;60508;42.622;25.416;2024-03-07T03:37:32;17.50;;;11.60;;
45077;SDS011;60508;42.622;25.416;2024-03-07T03:39:59;27.95;;;13.20;;
45077;SDS011;60508;42.622;25.416;2024-03-07T03:42:25;25.05;;;11.73;;
45077;SDS011;60508;42.622;25.416;2024-03-07T03:44:51;22.80;;;12.25;;
45077;SDS011;60508;42.622;25.416;2024-03-07T03:47:19;27.02;;;12.45;;
45077;SDS011;60508;42.622;25.416;2024-03-07T03:50:06;23.27;;;13.70;;
45077;SDS011;60508;42.622;25.416;2024-03-07T03:52:33;29.42;;;10.57;;
45077;SDS011;60508;42.622;25.416;2024-03-07T03:55:03;20.92;;;11.52;;
45077;SDS011;60508;42.622;25.416;2024-03-07T03:57:36;22.30;;;11.00;;
45077;SDS011;60508;42.622;25.416;2024-03-07T04:00:23;23.48;;;11.10;;
45077;SDS011;60508;42.622;25.416;2024-03-07T04:02:50;19.05;;;10.05;;
45077;SDS011;60508;42.622;25.416;2024-03-07T04:05:18;26.02;;;12.95;;
45077;SDS011;60508;42.622;25.416;2024-03-07T04:08:06;24.60;;;11.90;;
45077;SDS011;60508;42.622;25.416;2024-03-07T04:10:40;21.40;;;11.55;;
45077;SDS011;60508;42.622;25.416;2024-03-07T04:13:07;23.95;;;13.35;;
45077;SDS011;60508;42.622;25.416;2024-03-07T04:15:34;28.33;;;12.57;;
45077;SDS011;60508;42.622;25.416;2024-03-07T04:18:20;20.95;;;12.85;;
45077;SDS011;60508;42.622;25.416;2024-03-07T04:20:46;25.75;;;12.95;;
45077;SDS011;60508;42.622;25.416;2024-03-07T04:23:13;32.08;;;12.10;;
45077;SDS011;60508;42.622;25.416;2024-03-07T04:25:59;26.80;;;12.70;;
45077;SDS011;60508;42.622;25.416;2024-03-07T04:28:26;22.77;;;13.25;;
45077;SDS011;60508;42.622;25.416;2024-03-07T04:30:52;23.92;;;13.98;;
45077;SDS011;60508;42.622;25.416;2024-03-07T04:33:19;21.98;;;13.00;;
45077;SDS011;60508;42.622;25.416;2024-03-07T04:36:06;19.33;;;12.00;;
45077;SDS011;60508;42.622;25.416;2024-03-07T04:38:34;26.02;;;12.70;;
45077;SDS011;60508;42.622;25.416;2024-03-07T04:41:01;18.23;;;11.48;;
45077;SDS011;60508;42.622;25.416;2024-03-07T04:43:47;32.45;;;13.65;;
45077;SDS011;60508;42.622;25.416;2024-03-07T04:46:17;28.30;;;12.57;;
45077;SDS011;60508;42.622;25.416;2024-03-07T04:48:43;37.45;;;13.50;;
45077;SDS011;60508;42.622;25.416;2024-03-07T04:51:10;23.25;;;12.50;;
45077;SDS011;60508;42.622;25.416;2024-03-07T04:53:37;22.20;;;12.25;;
45077;SDS011;60508;42.622;25.416;2024-03-07T04:56:08;26.48;;;13.48;;
45077;SDS011;60508;42.622;25.416;2024-03-07T04:58:55;17.90;;;11.35;;
45077;SDS011;60508;42.622;25.416;2024-03-07T05:01:22;21.00;;;11.07;;
45077;SDS011;60508;42.622;25.416;2024-03-07T05:04:08;22.25;;;11.77;;
45077;SDS011;60508;42.622;25.416;2024-03-07T05:06:39;23.90;;;12.27;;
45077;SDS011;60508;42.622;25.416;2024-03-07T05:09:07;19.67;;;11.43;;
45077;SDS011;60508;42.622;25.416;2024-03-07T05:11:35;21.40;;;10.52;;
45077;SDS011;60508;42.622;25.416;2024-03-07T05:14:02;21.02;;;12.55;;
45077;SDS011;60508;42.622;25.416;2024-03-07T05:16:29;21.08;;;12.73;;
45077;SDS011;60508;42.622;25.416;2024-03-07T05:19:00;22.17;;;11.60;;
45077;SDS011;60508;42.622;25.416;2024-03-07T05:21:26;22.90;;;11.43;;
45077;SDS011;60508;42.622;25.416;2024-03-07T05:24:02;20.48;;;11.23;;
45077;SDS011;60508;42.622;25.416;2024-03-07T05:26:49;23.10;;;11.10;;
45077;SDS011;60508;42.622;25.416;2024-03-07T05:29:16;16.48;;;10.48;;
45077;SDS011;60508;42.622;25.416;2024-03-07T05:31:43;24.10;;;12.52;;
45077;SDS011;60508;42.622;25.416;2024-03-07T05:34:33;20.67;;;11.98;;
45077;SDS011;60508;42.622;25.416;2024-03-07T05:37:00;18.42;;;11.30;;
45077;SDS011;60508;42.622;25.416;2024-03-07T05:39:46;27.80;;;12.32;;
45077;SDS011;60508;42.622;25.416;2024-03-07T05:42:12;21.05;;;10.13;;
45077;SDS011;60508;42.622;25.416;2024-03-07T05:44:41;24.95;;;10.40;;
45077;SDS011;60508;42.622;25.416;2024-03-07T05:47:30;16.88;;;10.30;;
45077;SDS011;60508;42.622;25.416;2024-03-07T05:49:57;22.42;;;12.05;;
45077;SDS011;60508;42.622;25.416;2024-03-07T05:52:23;18.15;;;11.65;;
45077;SDS011;60508;42.622;25.416;2024-03-07T05:54:50;29.20;;;11.52;;
45077;SDS011;60508;42.622;25.416;2024-03-07T05:57:16;22.05;;;11.77;;
45077;SDS011;60508;42.622;25.416;2024-03-07T05:59:43;17.58;;;10.52;;
45077;SDS011;60508;42.622;25.416;2024-03-07T06:02:29;26.05;;;12.25;;
45077;SDS011;60508;42.622;25.416;2024-03-07T06:04:55;30.75;;;11.77;;
45077;SDS011;60508;42.622;25.416;2024-03-07T06:07:22;20.60;;;11.02;;
45077;SDS011;60508;42.622;25.416;2024-03-07T06:09:48;21.77;;;11.48;;
45077;SDS011;60508;42.622;25.416;2024-03-07T06:12:16;24.90;;;11.57;;
45077;SDS011;60508;42.622;25.416;2024-03-07T06:14:43;21.02;;;10.18;;
45077;SDS011;60508;42.622;25.416;2024-03-07T06:17:10;16.33;;;9.52;;
45077;SDS011;60508;42.622;25.416;2024-03-07T06:19:56;15.88;;;10.07;;
45077;SDS011;60508;42.622;25.416;2024-03-07T06:22:23;19.27;;;9.88;;
45077;SDS011;60508;42.622;25.416;2024-03-07T06:24:49;23.50;;;10.35;;
45077;SDS011;60508;42.622;25.416;2024-03-07T06:27:16;23.08;;;9.80;;
45077;SDS011;60508;42.622;25.416;2024-03-07T06:29:52;20.17;;;8.95;;
45077;SDS011;60508;42.622;25.416;2024-03-07T06:32:39;18.38;;;10.73;;
45077;SDS011;60508;42.622;25.416;2024-03-07T06:35:06;21.13;;;9.85;;
45077;SDS011;60508;42.622;25.416;2024-03-07T06:37:32;16.00;;;10.20;;
45077;SDS011;60508;42.622;25.416;2024-03-07T06:39:59;22.40;;;9.07;;
45077;SDS011;60508;42.622;25.416;2024-03-07T06:42:49;16.75;;;10.23;;
45077;SDS011;60508;42.622;25.416;2024-03-07T06:45:21;19.55;;;10.07;;
45077;SDS011;60508;42.622;25.416;2024-03-07T06:47:50;19.70;;;11.50;;
45077;SDS011;60508;42.622;25.416;2024-03-07T06:50:18;20.97;;;9.97;;
45077;SDS011;60508;42.622;25.416;2024-03-07T06:52:49;20.73;;;11.02;;
45077;SDS011;60508;42.622;25.416;2024-03-07T06:55:35;17.15;;;9.70;;
45077;SDS011;60508;42.622;25.416;2024-03-07T06:58:02;18.17;;;9.52;;
45077;SDS011;60508;42.622;25.416;2024-03-07T07:00:30;19.55;;;9.52;;
45077;SDS011;60508;42.622;25.416;2024-03-07T07:03:01;16.08;;;8.90;;
45077;SDS011;60508;42.622;25.416;2024-03-07T07:05:31;17.35;;;9.77;;
45077;SDS011;60508;42.622;25.416;2024-03-07T07:07:57;20.35;;;9.55;;
45077;SDS011;60508;42.622;25.416;2024-03-07T07:10:24;17.13;;;10.10;;
45077;SDS011;60508;42.622;25.416;2024-03-07T07:12:50;22.58;;;9.82;;
45077;SDS011;60508;42.622;25.416;2024-03-07T07:15:20;18.48;;;9.77;;
45077;SDS011;60508;42.622;25.416;2024-03-07T07:17:47;28.73;;;10.38;;
45077;SDS011;60508;42.622;25.416;2024-03-07T07:20:18;24.13;;;10.45;;
45077;SDS011;60508;42.622;25.416;2024-03-07T07:22:48;18.30;;;9.68;;
45077;SDS011;60508;42.622;25.416;2024-03-07T07:25:18;18.92;;;10.23;;
45077;SDS011;60508;42.622;25.416;2024-03-07T07:27:47;19.30;;;10.57;;
45077;SDS011;60508;42.622;25.416;2024-03-07T07:30:15;20.27;;;10.75;;
45077;SDS011;60508;42.622;25.416;2024-03-07T07:33:03;23.05;;;11.02;;
45077;SDS011;60508;42.622;25.416;2024-03-07T07:35:30;21.67;;;11.10;;
45077;SDS011;60508;42.622;25.416;2024-03-07T07:37:57;17.50;;;11.40;;
45077;SDS011;60508;42.622;25.416;2024-03-07T07:40:23;20.02;;;11.57;;
45077;SDS011;60508;42.622;25.416;2024-03-07T07:42:52;25.50;;;11.65;;
45077;SDS011;60508;42.622;25.416;2024-03-07T07:45:20;26.20;;;11.75;;
45077;SDS011;60508;42.622;25.416;2024-03-07T07:48:08;20.23;;;11.98;;
45077;SDS011;60508;42.622;25.416;2024-03-07T07:50:34;21.45;;;11.98;;
45077;SDS011;60508;42.622;25.416;2024-03-07T07:53:01;22.65;;;11.35;;
45077;SDS011;60508;42.622;25.416;2024-03-07T07:55:31;24.92;;;12.82;;
45077;SDS011;60508;42.622;25.416;2024-03-07T07:57:58;23.15;;;10.63;;
45077;SDS011;60508;42.622;25.416;2024-03-07T08:00:25;23.15;;;10.93;;
45077;SDS011;60508;42.622;25.416;2024-03-07T08:02:55;22.70;;;11.65;;
45077;SDS011;60508;42.622;25.416;2024-03-07T08:05:23;21.10;;;11.27;;
45077;SDS011;60508;42.622;25.416;2024-03-07T08:07:51;20.35;;;10.80;;
45077;SDS011;60508;42.622;25.416;2024-03-07T08:10:39;24.27;;;11.48;;
45077;SDS011;60508;42.622;25.416;2024-03-07T08:13:07;20.52;;;11.52;;
45077;SDS011;60508;42.622;25.416;2024-03-07T08:15:34;22.08;;;11.90;;
45077;SDS011;60508;42.622;25.416;2024-03-07T08:18:00;18.73;;;12.55;;
45077;SDS011;60508;42.622;25.416;2024-03-07T08:20:27;32.03;;;22.27;;
45077;SDS011;60508;42.622;25.416;2024-03-07T08:22:55;21.55;;;12.52;;
45077;SDS011;60508;42.622;25.416;2024-03-07T08:25:22;19.92;;;10.20;;
45077;SDS011;60508;42.622;25.416;2024-03-07T08:27:50;19.85;;;12.02;;
45077;SDS011;60508;42.622;25.416;2024-03-07T08:30:18;17.60;;;11.05;;
45077;SDS011;60508;42.622;25.416;2024-03-07T08:33:05;20.58;;;11.82;;
45077;SDS011;60508;42.622;25.416;2024-03-07T08:38:21;22.00;;;9.95;;
45077;SDS011;60508;42.622;25.416;2024-03-07T08:40:47;19.35;;;11.00;;
45077;SDS011;60508;42.622;25.416;2024-03-07T08:43:14;20.02;;;11.27;;
45077;SDS011;60508;42.622;25.416;2024-03-07T08:46:00;16.60;;;10.30;;
45077;SDS011;60508;42.622;25.416;2024-03-07T08:48:26;22.50;;;14.20;;
45077;SDS011;60508;42.622;25.416;2024-03-07T08:51:13;27.13;;;15.38;;
45077;SDS011;60508;42.622;25.416;2024-03-07T08:53:45;30.23;;;15.70;;
45077;SDS011;60508;42.622;25.416;2024-03-07T08:56:12;33.60;;;19.40;;
45077;SDS011;60508;42.622;25.416;2024-03-07T08:58:38;22.23;;;13.25;;
45077;SDS011;60508;42.622;25.416;2024-03-07T09:01:04;23.27;;;11.27;;
45077;SDS011;60508;42.622;25.416;2024-03-07T09:03:31;16.98;;;11.88;;
45077;SDS011;60508;42.622;25.416;2024-03-07T09:06:17;15.80;;;9.70;;
45077;SDS011;60508;42.622;25.416;2024-03-07T09:08:44;17.67;;;10.48;;
45077;SDS011;60508;42.622;25.416;2024-03-07T09:11:31;12.27;;;8.63;;
45077;SDS011;60508;42.622;25.416;2024-03-07T09:13:58;14.45;;;8.98;;
45077;SDS011;60508;42.622;25.416;2024-03-07T09:16:44;17.25;;;8.27;;
45077;SDS011;60508;42.622;25.416;2024-03-07T09:19:12;14.05;;;8.68;;
45077;SDS011;60508;42.622;25.416;2024-03-07T09:21:59;17.65;;;9.18;;
45077;SDS011;60508;42.622;25.416;2024-03-07T09:24:29;12.83;;;9.83;;
45077;SDS011;60508;42.622;25.416;2024-03-07T09:26:56;12.37;;;9.17;;
45077;SDS011;60508;42.622;25.416;2024-03-07T09:29:23;12.15;;;8.98;;
45077;SDS011;60508;42.622;25.416;2024-03-07T09:32:09;16.33;;;8.90;;
45077;SDS011;60508;42.622;25.416;2024-03-07T09:34:38;11.35;;;8.05;;
45077;SDS011;60508;42.622;25.416;2024-03-07T09:37:05;13.13;;;8.07;;
45077;SDS011;60508;42.622;25.416;2024-03-07T09:42:20;9.85;;;7.28;;
45077;SDS011;60508;42.622;25.416;2024-03-07T09:44:48;14.15;;;9.48;;
45077;SDS011;60508;42.622;25.416;2024-03-07T09:47:17;12.45;;;8.60;;
45077;SDS011;60508;42.622;25.416;2024-03-07T09:50:09;14.73;;;8.48;;
45077;SDS011;60508;42.622;25.416;2024-03-07T09:52:39;11.05;;;8.13;;
45077;SDS011;60508;42.622;25.416;2024-03-07T09:55:10;10.52;;;7.63;;
45077;SDS011;60508;42.622;25.416;2024-03-07T09:57:36;16.60;;;8.65;;
45077;SDS011;60508;42.622;25.416;2024-03-07T10:00:25;12.07;;;7.93;;
45077;SDS011;60508;42.622;25.416;2024-03-07T10:03:05;15.20;;;7.85;;
45077;SDS011;60508;42.622;25.416;2024-03-07T10:05:57;12.98;;;8.70;;
45077;SDS011;60508;42.622;25.416;2024-03-07T10:08:23;11.90;;;7.80;;
45077;SDS011;60508;42.622;25.416;2024-03-07T10:10:51;17.38;;;9.15;;
45077;SDS011;60508;42.622;25.416;2024-03-07T10:13:18;12.05;;;8.32;;
45077;SDS011;60508;42.622;25.416;2024-03-07T10:16:05;14.93;;;8.63;;
45077;SDS011;60508;42.622;25.416;2024-03-07T10:18:32;14.90;;;8.35;;
45077;SDS011;60508;42.622;25.416;2024-03-07T10:21:06;14.23;;;8.60;;
45077;SDS011;60508;42.622;25.416;2024-03-07T10:23:41;15.00;;;7.70;;
45077;SDS011;60508;42.622;25.416;2024-03-07T10:26:07;12.55;;;7.30;;
45077;SDS011;60508;42.622;25.416;2024-03-07T10:28:56;14.65;;;8.52;;
45077;SDS011;60508;42.622;25.416;2024-03-07T10:31:32;13.00;;;7.97;;
45077;SDS011;60508;42.622;25.416;2024-03-07T10:34:19;13.88;;;7.57;;
45077;SDS011;60508;42.622;25.416;2024-03-07T10:36:46;10.45;;;7.30;;
45077;SDS011;60508;42.622;25.416;2024-03-07T10:39:13;12.68;;;7.68;;
45077;SDS011;60508;42.622;25.416;2024-03-07T10:41:44;8.80;;;6.15;;
45077;SDS011;60508;42.622;25.416;2024-03-07T10:44:18;8.27;;;6.60;;
45077;SDS011;60508;42.622;25.416;2024-03-07T10:46:55;13.18;;;8.23;;
45077;SDS011;60508;42.622;25.416;2024-03-07T10:49:24;14.65;;;8.57;;
45077;SDS011;60508;42.622;25.416;2024-03-07T10:52:17;14.98;;;8.13;;
45077;SDS011;60508;42.622;25.416;2024-03-07T10:55:03;13.88;;;8.98;;
45077;SDS011;60508;42.622;25.416;2024-03-07T10:58:17;15.48;;;8.80;;
45077;SDS011;60508;42.622;25.416;2024-03-07T11:01:03;14.18;;;9.30;;
45077;SDS011;60508;42.622;25.416;2024-03-07T11:03:51;13.40;;;8.90;;
45077;SDS011;60508;42.622;25.416;2024-03-07T11:06:18;16.05;;;8.57;;
45077;SDS011;60508;42.622;25.416;2024-03-07T11:08:45;11.48;;;8.15;;
45077;SDS011;60508;42.622;25.416;2024-03-07T11:11:33;15.23;;;8.23;;
45077;SDS011;60508;42.622;25.416;2024-03-07T11:13:59;14.98;;;8.48;;
45077;SDS011;60508;42.622;25.416;2024-03-07T11:16:33;12.65;;;7.57;;
45077;SDS011;60508;42.622;25.416;2024-03-07T11:22:28;9.10;;;7.78;;
45077;SDS011;60508;42.622;25.416;2024-03-07T11:25:05;11.13;;;7.88;;
45077;SDS011;60508;42.622;25.416;2024-03-07T11:27:59;14.48;;;9.00;;
45077;SDS011;60508;42.622;25.416;2024-03-07T11:30:28;14.88;;;9.07;;
45077;SDS011;60508;42.622;25.416;2024-03-07T11:33:14;19.25;;;9.88;;
45077;SDS011;60508;42.622;25.416;2024-03-07T11:35:48;11.95;;;9.43;;
45077;SDS011;60508;42.622;25.416;2024-03-07T11:38:35;13.57;;;8.07;;
45077;SDS011;60508;42.622;25.416;2024-03-07T11:41:01;14.95;;;8.82;;
45077;SDS011;60508;42.622;25.416;2024-03-07T11:43:28;16.77;;;8.73;;
45077;SDS011;60508;42.622;25.416;2024-03-07T11:45:55;22.77;;;8.73;;
45077;SDS011;60508;42.622;25.416;2024-03-07T11:48:23;18.17;;;9.48;;
45077;SDS011;60508;42.622;25.416;2024-03-07T11:50:50;16.65;;;8.18;;
45077;SDS011;60508;42.622;25.416;2024-03-07T11:53:40;12.43;;;9.10;;
45077;SDS011;60508;42.622;25.416;2024-03-07T11:56:07;14.70;;;8.95;;
45077;SDS011;60508;42.622;25.416;2024-03-07T11:58:55;14.00;;;9.18;;
45077;SDS011;60508;42.622;25.416;2024-03-07T12:01:32;19.85;;;10.10;;
45077;SDS011;60508;42.622;25.416;2024-03-07T12:03:59;12.73;;;9.60;;
45077;SDS011;60508;42.622;25.416;2024-03-07T12:06:31;15.18;;;9.48;;
45077;SDS011;60508;42.622;25.416;2024-03-07T12:09:01;16.88;;;9.43;;
45077;SDS011;60508;42.622;25.416;2024-03-07T12:11:32;17.50;;;9.85;;
45077;SDS011;60508;42.622;25.416;2024-03-07T12:14:02;18.38;;;10.52;;
45077;SDS011;60508;42.622;25.416;2024-03-07T12:16:30;12.82;;;8.75;;
45077;SDS011;60508;42.622;25.416;2024-03-07T12:18:57;13.60;;;9.77;;
45077;SDS011;60508;42.622;25.416;2024-03-07T12:21:24;16.98;;;9.07;;
45077;SDS011;60508;42.622;25.416;2024-03-07T12:24:13;17.48;;;9.68;;
45077;SDS011;60508;42.622;25.416;2024-03-07T12:26:41;15.65;;;8.98;;
45077;SDS011;60508;42.622;25.416;2024-03-07T12:29:09;15.50;;;9.32;;
45077;SDS011;60508;42.622;25.416;2024-03-07T12:31:38;13.65;;;9.07;;
45077;SDS011;60508;42.622;25.416;2024-03-07T12:34:25;16.48;;;11.15;;
45077;SDS011;60508;42.622;25.416;2024-03-07T12:36:56;20.95;;;10.60;;
45077;SDS011;60508;42.622;25.416;2024-03-07T12:39:25;25.23;;;13.60;;
45077;SDS011;60508;42.622;25.416;2024-03-07T12:41:57;20.73;;;12.07;;
45077;SDS011;60508;42.622;25.416;2024-03-07T12:47:10;18.75;;;12.15;;
45077;SDS011;60508;42.622;25.416;2024-03-07T12:49:36;18.13;;;10.65;;
45077;SDS011;60508;42.622;25.416;2024-03-07T12:52:03;18.02;;;11.55;;
45077;SDS011;60508;42.622;25.416;2024-03-07T12:54:29;15.90;;;10.32;;
45077;SDS011;60508;42.622;25.416;2024-03-07T12:56:56;19.60;;;10.35;;
45077;SDS011;60508;42.622;25.416;2024-03-07T12:59:22;31.45;;;14.98;;
45077;SDS011;60508;42.622;25.416;2024-03-07T13:01:50;31.98;;;14.52;;
45077;SDS011;60508;42.622;25.416;2024-03-07T13:04:37;17.30;;;11.15;;
45077;SDS011;60508;42.622;25.416;2024-03-07T13:07:04;21.23;;;13.55;;
45077;SDS011;60508;42.622;25.416;2024-03-07T13:09:51;23.70;;;12.73;;
45077;SDS011;60508;42.622;25.416;2024-03-07T13:12:17;26.15;;;11.75;;
45077;SDS011;60508;42.622;25.416;2024-03-07T13:14:43;22.88;;;12.27;;
45077;SDS011;60508;42.622;25.416;2024-03-07T13:17:30;30.20;;;14.95;;
45077;SDS011;60508;42.622;25.416;2024-03-07T13:19:56;18.98;;;12.25;;
45077;SDS011;60508;42.622;25.416;2024-03-07T13:24:52;23.15;;;12.55;;
45077;SDS011;60508;42.622;25.416;2024-03-07T13:27:18;25.38;;;12.30;;
45077;SDS011;60508;42.622;25.416;2024-03-07T13:29:53;22.70;;;12.55;;
45077;SDS011;60508;42.622;25.416;2024-03-07T13:32:20;27.20;;;11.73;;
45077;SDS011;60508;42.622;25.416;2024-03-07T13:34:46;17.98;;;11.52;;
45077;SDS011;60508;42.622;25.416;2024-03-07T13:37:33;21.65;;;12.65;;
45077;SDS011;60508;42.622;25.416;2024-03-07T13:40:00;21.10;;;10.07;;
45077;SDS011;60508;42.622;25.416;2024-03-07T13:42:53;15.32;;;10.60;;
45077;SDS011;60508;42.622;25.416;2024-03-07T13:45:23;17.42;;;10.57;;
45077;SDS011;60508;42.622;25.416;2024-03-07T13:48:12;27.80;;;12.30;;
45077;SDS011;60508;42.622;25.416;2024-03-07T13:50:43;18.85;;;12.18;;
45077;SDS011;60508;42.622;25.416;2024-03-07T13:53:14;16.98;;;10.68;;
45077;SDS011;60508;42.622;25.416;2024-03-07T14:14:20;14.07;;;9.88;;
45077;SDS011;60508;42.622;25.416;2024-03-07T14:23:45;20.17;;;12.07;;
45077;SDS011;60508;42.622;25.416;2024-03-07T14:29:39;17.65;;;12.35;;
45077;SDS011;60508;42.622;25.416;2024-03-07T14:32:11;16.58;;;11.48;;
45077;SDS011;60508;42.622;25.416;2024-03-07T14:37:23;18.17;;;11.33;;
45077;SDS011;60508;42.622;25.416;2024-03-07T14:39:53;17.67;;;9.88;;
45077;SDS011;60508;42.622;25.416;2024-03-07T14:42:56;17.92;;;11.75;;
45077;SDS011;60508;42.622;25.416;2024-03-07T14:45:31;25.13;;;13.65;;
45077;SDS011;60508;42.622;25.416;2024-03-07T14:48:22;18.30;;;11.15;;
45077;SDS011;60508;42.622;25.416;2024-03-07T14:50:48;16.38;;;10.68;;
45077;SDS011;60508;42.622;25.416;2024-03-07T14:53:15;15.43;;;10.38;;
45077;SDS011;60508;42.622;25.416;2024-03-07T14:55:46;13.43;;;9.57;;
45077;SDS011;60508;42.622;25.416;2024-03-07T14:58:12;15.15;;;9.25;;
45077;SDS011;60508;42.622;25.416;2024-03-07T15:00:40;24.40;;;13.75;;
45077;SDS011;60508;42.622;25.416;2024-03-07T15:03:10;16.88;;;10.85;;
45077;SDS011;60508;42.622;25.416;2024-03-07T15:06:00;31.52;;;17.40;;
45077;SDS011;60508;42.622;25.416;2024-03-07T15:08:32;16.95;;;11.68;;
45077;SDS011;60508;42.622;25.416;2024-03-07T15:14:00;20.17;;;11.35;;
45077;SDS011;60508;42.622;25.416;2024-03-07T15:16:27;21.92;;;13.05;;
45077;SDS011;60508;42.622;25.416;2024-03-07T15:19:16;28.70;;;13.32;;
45077;SDS011;60508;42.622;25.416;2024-03-07T15:21:44;17.52;;;11.88;;
45077;SDS011;60508;42.622;25.416;2024-03-07T15:24:30;17.80;;;11.32;;
45077;SDS011;60508;42.622;25.416;2024-03-07T15:26:57;17.77;;;11.65;;
45077;SDS011;60508;42.622;25.416;2024-03-07T15:29:23;18.75;;;12.80;;
45077;SDS011;60508;42.622;25.416;2024-03-07T15:32:10;15.52;;;10.85;;